Time;durP1;ratioP1;P1;durP2;ratioP2;P2;SDS_P1;SDS_P2;PMS_P1;PMS_P2;Temp;Humidity;BMP_temperature;BMP_pressure;BME280_temperature;BME280_humidity;BME280_pressure;Samples;Min_cycle;Max_cycle;Signal;HPM_P1;HPM_P2
2021/07/16 00:01:19;;;;;;;;;;;17.30;99.90;;;;;;5053275;28;19925;-91
2021/07/16 00:03:45;;;;;;;;;;;17.20;99.90;;;;;;5019725;28;20399;-91
2021/07/16 00:06:10;;;;;;;;;;;17.30;99.90;;;;;;5060458;28;20280;-91
2021/07/16 00:08:37;;;;;;;;;;;17.30;99.90;;;;;;5072464;28;19932;-91
2021/07/16 00:11:02;;;;;;;;;;;17.20;99.90;;;;;;5053809;28;20352;-91
2021/07/16 00:13:28;;;;;;;;;;;17.20;99.90;;;;;;5040558;28;19947;-91
2021/07/16 00:15:54;;;;;;;;;;;17.20;99.90;;;;;;5019405;28;19966;-91
2021/07/16 00:18:19;;;;;;;;;;;17.30;99.90;;;;;;5035420;28;19921;-91
2021/07/16 00:20:47;;;;;;;;;;;17.20;99.90;;;;;;5035845;28;19936;-91
2021/07/16 00:23:13;;;;;;;;;;;17.20;99.90;;;;;;5044222;28;19930;-92
2021/07/16 00:25:39;;;;;;;;;;;17.20;99.90;;;;;;5075315;28;19932;-91
2021/07/16 00:28:06;;;;;;;;;;;17.20;99.90;;;;;;5093201;28;19927;-91
2021/07/16 00:30:32;;;;;;;;;;;17.20;99.90;;;;;;5075307;28;19943;-91
2021/07/16 00:32:57;;;;;;;;;;;17.10;99.90;;;;;;5063303;28;19974;-91
2021/07/16 00:35:23;;;;;;;;;;;17.10;99.90;;;;;;5058586;28;20308;-91
2021/07/16 00:37:49;;;;;;;;;;;17.20;99.90;;;;;;5076829;28;20355;-92
2021/07/16 00:40:15;;;;;;;;;;;17.20;99.90;;;;;;5078253;28;19928;-91
2021/07/16 00:42:41;;;;;;;;;;;17.20;99.90;;;;;;5092355;28;19920;-91
2021/07/16 00:45:07;;;;;;;;;;;17.20;99.90;;;;;;5078568;28;19966;-91
2021/07/16 00:47:33;;;;;;;;;;;17.20;99.90;;;;;;5087400;28;19927;-91
2021/07/16 00:49:59;;;;;;;;;;;17.20;99.90;;;;;;5059310;28;19924;-91
2021/07/16 00:52:24;;;;;;;;;;;17.10;99.90;;;;;;5105366;28;19927;-91
2021/07/16 00:54:51;;;;;;;;;;;17.10;99.90;;;;;;5073647;28;19921;-91
2021/07/16 00:57:17;;;;;;;;;;;17.20;99.90;;;;;;5074721;28;19924;-91
2021/07/16 00:59:43;;;;;;;;;;;17.20;99.90;;;;;;5074869;28;19920;-91
2021/07/16 01:02:10;;;;;;;;;;;17.20;99.90;;;;;;5075010;28;19946;-91
2021/07/16 01:04:36;;;;;;;;;;;17.10;99.90;;;;;;5075647;28;19924;-91
2021/07/16 01:07:05;;;;;;;;;;;17.10;99.90;;;;;;5075999;28;19931;-91
2021/07/16 01:09:31;;;;;;;;;;;17.10;99.90;;;;;;5061521;28;19931;-91
2021/07/16 01:11:57;;;;;;;;;;;17.10;99.90;;;;;;5074245;28;20367;-91
2021/07/16 01:14:23;;;;;;;;;;;17.00;99.90;;;;;;5091263;28;20410;-91
2021/07/16 01:16:48;;;;;;;;;;;17.10;99.90;;;;;;5090925;28;19968;-91
2021/07/16 01:19:23;;;;;;;;;;;17.00;99.90;;;;;;5074489;28;19920;-91
2021/07/16 01:21:50;;;;;;;;;;;17.00;99.90;;;;;;5057931;28;19924;-91
2021/07/16 01:24:16;;;;;;;;;;;17.00;99.90;;;;;;5074748;28;20390;-91
2021/07/16 01:26:42;;;;;;;;;;;17.00;99.90;;;;;;5077169;28;19923;-91
2021/07/16 01:29:10;;;;;;;;;;;17.00;99.90;;;;;;5094637;28;20382;-91
2021/07/16 01:31:36;;;;;;;;;;;17.00;99.90;;;;;;5090988;28;19924;-91
2021/07/16 01:34:02;;;;;;;;;;;17.10;99.90;;;;;;5085809;28;20371;-91
2021/07/16 01:36:28;;;;;;;;;;;17.10;99.90;;;;;;5097143;28;19923;-91
2021/07/16 01:38:53;;;;;;;;;;;17.10;99.90;;;;;;5109598;28;19920;-91
2021/07/16 01:41:19;;;;;;;;;;;17.10;99.90;;;;;;5087316;28;19924;-92
2021/07/16 01:43:45;;;;;;;;;;;17.00;99.90;;;;;;5083522;28;19969;-91
2021/07/16 01:46:11;;;;;;;;;;;17.00;99.90;;;;;;5089849;28;19924;-91
2021/07/16 01:48:36;;;;;;;;;;;17.00;99.90;;;;;;5077502;28;19920;-91
2021/07/16 01:51:02;;;;;;;;;;;17.00;99.90;;;;;;5086517;28;19959;-91
2021/07/16 01:53:28;;;;;;;;;;;17.00;99.90;;;;;;5057241;28;20023;-91
2021/07/16 01:55:54;;;;;;;;;;;17.00;99.90;;;;;;5058544;28;19968;-91
2021/07/16 01:58:20;;;;;;;;;;;17.00;99.90;;;;;;5092781;28;20015;-91
2021/07/16 02:00:46;;;;;;;;;;;17.00;99.90;;;;;;5042079;28;19931;-92
2021/07/16 02:03:15;;;;;;;;;;;17.00;99.90;;;;;;5074563;28;19920;-90
2021/07/16 02:05:41;;;;;;;;;;;17.10;99.90;;;;;;5091873;28;19924;-91
2021/07/16 02:08:13;;;;;;;;;;;17.10;99.90;;;;;;5072959;28;19942;-92
2021/07/16 02:10:40;;;;;;;;;;;17.00;99.90;;;;;;5075265;28;19928;-91
2021/07/16 02:13:06;;;;;;;;;;;17.10;99.90;;;;;;5081386;28;20368;-91
2021/07/16 02:15:34;;;;;;;;;;;17.00;99.90;;;;;;5076650;28;20003;-91
2021/07/16 02:18:00;;;;;;;;;;;17.10;99.90;;;;;;5086180;28;19924;-91
2021/07/16 02:20:27;;;;;;;;;;;17.10;99.90;;;;;;5090163;28;19924;-91
2021/07/16 02:22:53;;;;;;;;;;;17.10;99.90;;;;;;5077784;28;20361;-91
2021/07/16 02:25:19;;;;;;;;;;;17.10;99.90;;;;;;5111199;28;19923;-92
2021/07/16 02:27:49;;;;;;;;;;;17.10;99.90;;;;;;5102094;28;19924;-91
2021/07/16 02:30:15;;;;;;;;;;;17.10;99.90;;;;;;5072840;28;20002;-90
2021/07/16 02:32:41;;;;;;;;;;;17.20;99.90;;;;;;5077382;28;19938;-91
2021/07/16 02:35:08;;;;;;;;;;;17.10;99.90;;;;;;5072884;28;19920;-91
2021/07/16 02:37:34;;;;;;;;;;;17.20;99.90;;;;;;5071528;28;19924;-92
2021/07/16 02:40:00;;;;;;;;;;;17.20;99.90;;;;;;5092752;28;19927;-91
2021/07/16 02:42:26;;;;;;;;;;;17.10;99.90;;;;;;5075486;28;19935;-92
2021/07/16 02:44:52;;;;;;;;;;;17.10;99.90;;;;;;5074989;28;19919;-91
2021/07/16 02:47:17;;;;;;;;;;;17.20;99.90;;;;;;5072072;28;19974;-91
2021/07/16 02:49:43;;;;;;;;;;;17.20;99.90;;;;;;5055300;28;20065;-91
2021/07/16 02:52:09;;;;;;;;;;;17.20;99.90;;;;;;5074744;28;20076;-91
2021/07/16 02:54:34;;;;;;;;;;;17.10;99.90;;;;;;5074542;28;19927;-91
2021/07/16 02:57:00;;;;;;;;;;;17.10;99.90;;;;;;5079703;28;19919;-91
2021/07/16 02:59:26;;;;;;;;;;;17.10;99.90;;;;;;5075805;28;19930;-91
2021/07/16 03:01:53;;;;;;;;;;;17.10;99.90;;;;;;5086085;28;19947;-91
2021/07/16 03:04:18;;;;;;;;;;;17.10;99.90;;;;;;5067381;28;19928;-91
2021/07/16 03:06:44;;;;;;;;;;;17.10;99.90;;;;;;5072482;28;19927;-91
2021/07/16 03:09:10;;;;;;;;;;;17.00;99.90;;;;;;5055501;28;19927;-91
2021/07/16 03:11:36;;;;;;;;;;;17.00;99.90;;;;;;5055980;28;19928;-91
2021/07/16 03:14:03;;;;;;;;;;;17.00;99.90;;;;;;5055429;28;19931;-91
2021/07/16 03:16:28;;;;;;;;;;;17.00;99.90;;;;;;5072488;28;20434;-91
2021/07/16 03:18:57;;;;;;;;;;;17.00;99.90;;;;;;5051970;28;20011;-91
2021/07/16 03:21:22;;;;;;;;;;;17.00;99.90;;;;;;5060748;28;19924;-91
2021/07/16 03:23:48;;;;;;;;;;;17.10;99.90;;;;;;5059826;28;20357;-91
2021/07/16 03:26:14;;;;;;;;;;;17.10;99.90;;;;;;5065365;28;20398;-91
2021/07/16 03:28:40;;;;;;;;;;;17.10;99.90;;;;;;5096907;28;19945;-90
2021/07/16 03:31:05;;;;;;;;;;;17.10;99.90;;;;;;5079146;28;19973;-91
2021/07/16 03:33:31;;;;;;;;;;;17.00;99.90;;;;;;5095080;28;19920;-91
2021/07/16 03:35:57;;;;;;;;;;;17.00;99.90;;;;;;5079619;28;19969;-90
2021/07/16 03:38:22;;;;;;;;;;;17.00;99.90;;;;;;5089118;28;19939;-91
2021/07/16 03:40:53;;;;;;;;;;;17.00;99.90;;;;;;5042433;28;19934;-91
2021/07/16 03:43:19;;;;;;;;;;;17.10;99.90;;;;;;5077052;28;19920;-90
2021/07/16 03:45:45;;;;;;;;;;;17.10;99.90;;;;;;5059009;28;20394;-91
2021/07/16 03:48:10;;;;;;;;;;;17.00;99.90;;;;;;5098335;28;19923;-91
2021/07/16 03:50:36;;;;;;;;;;;17.00;99.90;;;;;;5092177;28;19931;-91
2021/07/16 03:53:03;;;;;;;;;;;17.00;99.90;;;;;;5093656;28;20497;-91
2021/07/16 03:55:29;;;;;;;;;;;17.00;99.90;;;;;;5083831;28;20030;-91
2021/07/16 03:57:55;;;;;;;;;;;17.00;99.90;;;;;;5075970;28;20028;-91
2021/07/16 04:00:25;;;;;;;;;;;17.00;99.90;;;;;;5058500;28;19924;-91
2021/07/16 04:02:52;;;;;;;;;;;17.00;99.90;;;;;;5095275;28;20294;-91
2021/07/16 04:05:19;;;;;;;;;;;17.00;99.90;;;;;;5096513;28;20379;-91
2021/07/16 04:07:45;;;;;;;;;;;17.00;99.90;;;;;;5111561;28;19926;-90
2021/07/16 04:10:16;;;;;;;;;;;17.00;99.90;;;;;;5073148;28;19934;-90
2021/07/16 04:12:48;;;;;;;;;;;17.00;99.90;;;;;;5075249;28;19928;-91
2021/07/16 04:15:14;;;;;;;;;;;17.00;99.90;;;;;;5076615;28;19935;-90
2021/07/16 04:17:39;;;;;;;;;;;17.00;99.90;;;;;;5078558;28;20275;-91
2021/07/16 04:20:06;;;;;;;;;;;17.00;99.90;;;;;;5058383;28;19935;-90
2021/07/16 04:22:34;;;;;;;;;;;17.00;99.90;;;;;;5060143;28;19927;-92
2021/07/16 04:25:02;;;;;;;;;;;17.00;99.90;;;;;;5079992;28;19930;-93
2021/07/16 04:27:28;;;;;;;;;;;17.00;99.90;;;;;;5113444;28;19931;-95
2021/07/16 04:29:54;;;;;;;;;;;17.00;99.90;;;;;;5082367;28;19920;-96
2021/07/16 04:32:19;;;;;;;;;;;17.00;99.90;;;;;;5103911;28;19931;-95
2021/07/16 04:34:45;;;;;;;;;;;17.00;99.90;;;;;;5103787;28;19924;-94
2021/07/16 04:37:11;;;;;;;;;;;16.90;99.90;;;;;;5081193;28;19931;-96
2021/07/16 04:39:37;;;;;;;;;;;17.00;99.90;;;;;;5101604;28;19920;-96
2021/07/16 04:42:04;;;;;;;;;;;17.00;99.90;;;;;;5096772;28;19924;-93
2021/07/16 04:44:31;;;;;;;;;;;16.90;99.90;;;;;;5111429;28;19927;-94
2021/07/16 04:46:56;;;;;;;;;;;16.90;99.90;;;;;;5097400;28;19970;-94
2021/07/16 04:49:23;;;;;;;;;;;17.00;99.90;;;;;;5076734;28;19923;-91
2021/07/16 04:51:49;;;;;;;;;;;17.00;99.90;;;;;;5086258;28;20019;-91
2021/07/16 04:54:16;;;;;;;;;;;17.00;99.90;;;;;;5082025;28;20010;-91
2021/07/16 04:56:45;;;;;;;;;;;17.00;99.90;;;;;;5078605;28;20364;-91
2021/07/16 04:59:18;;;;;;;;;;;17.10;99.90;;;;;;5071122;28;19923;-91
2021/07/16 05:01:44;;;;;;;;;;;17.10;99.90;;;;;;5066668;28;19924;-91
2021/07/16 05:04:10;;;;;;;;;;;17.10;99.90;;;;;;5078171;28;19966;-91
2021/07/16 05:06:36;;;;;;;;;;;17.10;99.90;;;;;;5072701;28;19928;-91
2021/07/16 05:09:02;;;;;;;;;;;17.10;99.90;;;;;;5079325;28;20393;-91
2021/07/16 05:11:28;;;;;;;;;;;17.00;99.90;;;;;;5066569;28;19924;-90
2021/07/16 05:13:54;;;;;;;;;;;17.10;99.90;;;;;;5065724;28;19928;-91
2021/07/16 05:16:21;;;;;;;;;;;17.00;99.90;;;;;;5097629;28;19936;-91
2021/07/16 05:18:47;;;;;;;;;;;17.00;99.90;;;;;;5094435;28;20043;-91
2021/07/16 05:21:13;;;;;;;;;;;17.00;99.90;;;;;;5093691;28;19935;-91
2021/07/16 05:23:40;;;;;;;;;;;17.00;99.90;;;;;;5076317;28;20001;-91
2021/07/16 05:26:06;;;;;;;;;;;17.00;99.90;;;;;;5074544;28;20018;-91
2021/07/16 05:28:31;;;;;;;;;;;17.00;99.90;;;;;;5074290;28;20007;-89
2021/07/16 05:30:57;;;;;;;;;;;17.00;99.90;;;;;;5057587;28;19924;-91
2021/07/16 05:33:23;;;;;;;;;;;17.00;99.90;;;;;;5058732;28;20003;-90
2021/07/16 05:35:49;;;;;;;;;;;17.10;99.90;;;;;;5093876;28;19920;-91
2021/07/16 05:38:15;;;;;;;;;;;17.10;99.90;;;;;;5092962;28;19967;-91
2021/07/16 05:40:41;;;;;;;;;;;17.10;99.90;;;;;;5073608;28;19979;-91
2021/07/16 05:43:08;;;;;;;;;;;17.10;99.90;;;;;;5056753;28;19973;-90
2021/07/16 05:45:34;;;;;;;;;;;17.10;99.90;;;;;;5073623;28;19924;-91
2021/07/16 05:48:02;;;;;;;;;;;17.10;99.90;;;;;;5075574;28;19923;-90
2021/07/16 05:50:27;;;;;;;;;;;17.10;99.90;;;;;;5093693;28;19920;-91
2021/07/16 05:52:53;;;;;;;;;;;17.20;99.90;;;;;;5076299;28;19919;-91
2021/07/16 05:55:19;;;;;;;;;;;17.20;99.90;;;;;;5093958;28;19923;-91
2021/07/16 05:57:45;;;;;;;;;;;17.20;99.90;;;;;;5092769;28;20022;-91
2021/07/16 06:00:11;;;;;;;;;;;17.20;99.90;;;;;;5056657;28;19920;-91
2021/07/16 06:02:37;;;;;;;;;;;17.20;99.90;;;;;;5073989;28;19932;-90
2021/07/16 06:05:03;;;;;;;;;;;17.20;99.90;;;;;;5073559;28;19916;-91
2021/07/16 06:07:28;;;;;;;;;;;17.20;99.90;;;;;;5040213;28;19967;-91
2021/07/16 06:09:54;;;;;;;;;;;17.20;99.90;;;;;;5040114;28;19924;-90
2021/07/16 06:12:22;;;;;;;;;;;17.20;99.90;;;;;;5056737;28;20622;-91
2021/07/16 06:14:55;;;;;;;;;;;17.20;99.90;;;;;;5076127;28;19977;-91
2021/07/16 06:17:21;;;;;;;;;;;17.30;99.90;;;;;;5093264;28;20307;-91
2021/07/16 06:19:47;;;;;;;;;;;17.30;99.90;;;;;;5091380;28;19924;-91
2021/07/16 06:22:13;;;;;;;;;;;17.30;99.90;;;;;;5091107;28;19993;-91
2021/07/16 06:24:39;;;;;;;;;;;17.30;99.90;;;;;;5056748;28;19931;-90
2021/07/16 06:27:04;;;;;;;;;;;17.40;99.90;;;;;;5056391;28;19930;-91
2021/07/16 06:29:32;;;;;;;;;;;17.40;99.90;;;;;;5073062;28;19935;-91
2021/07/16 06:31:57;;;;;;;;;;;17.50;99.90;;;;;;5073037;28;19920;-91
2021/07/16 06:34:23;;;;;;;;;;;17.40;99.90;;;;;;5072386;28;19923;-91
2021/07/16 06:36:49;;;;;;;;;;;17.50;99.90;;;;;;5073262;28;20288;-91
2021/07/16 06:39:15;;;;;;;;;;;17.50;99.90;;;;;;5072384;28;19947;-91
2021/07/16 06:41:40;;;;;;;;;;;17.50;99.90;;;;;;5039585;28;20018;-91
2021/07/16 06:44:08;;;;;;;;;;;17.50;99.90;;;;;;5055983;28;19924;-91
2021/07/16 06:46:33;;;;;;;;;;;17.50;99.90;;;;;;5056400;28;19920;-90
2021/07/16 06:48:59;;;;;;;;;;;17.50;99.90;;;;;;5071717;28;19927;-91
2021/07/16 06:51:25;;;;;;;;;;;17.50;99.90;;;;;;5072839;28;19947;-90
2021/07/16 06:53:50;;;;;;;;;;;17.50;99.90;;;;;;5055978;28;20022;-91
2021/07/16 06:56:16;;;;;;;;;;;17.50;99.90;;;;;;5056152;28;20413;-91
2021/07/16 06:58:42;;;;;;;;;;;17.50;99.90;;;;;;5074152;28;19924;-91
2021/07/16 07:01:08;;;;;;;;;;;17.50;99.90;;;;;;5078618;28;19928;-91
2021/07/16 07:03:33;;;;;;;;;;;17.60;99.90;;;;;;5084172;28;19935;-91
2021/07/16 07:05:59;;;;;;;;;;;17.60;99.90;;;;;;5039606;28;20296;-91
2021/07/16 07:08:25;;;;;;;;;;;17.60;99.90;;;;;;5063691;28;19920;-90
2021/07/16 07:10:50;;;;;;;;;;;17.60;99.90;;;;;;5092817;28;19931;-90
2021/07/16 07:13:17;;;;;;;;;;;17.60;99.90;;;;;;5075644;28;19924;-91
2021/07/16 07:15:43;;;;;;;;;;;17.60;99.90;;;;;;5075928;28;19923;-91
2021/07/16 07:18:09;;;;;;;;;;;17.60;99.90;;;;;;5090795;28;19927;-90
2021/07/16 07:20:35;;;;;;;;;;;17.60;99.90;;;;;;5075794;28;19927;-90
2021/07/16 07:23:02;;;;;;;;;;;17.60;99.90;;;;;;5055539;28;19993;-91
2021/07/16 07:25:27;;;;;;;;;;;17.60;99.90;;;;;;5089509;28;19924;-91
2021/07/16 07:27:53;;;;;;;;;;;17.70;99.90;;;;;;5071900;28;19946;-91
2021/07/16 07:30:19;;;;;;;;;;;17.70;99.90;;;;;;5072646;28;19924;-91
2021/07/16 07:32:45;;;;;;;;;;;17.70;99.90;;;;;;5072077;28;19924;-91
2021/07/16 07:35:11;;;;;;;;;;;17.70;99.90;;;;;;5083644;28;19923;-91
2021/07/16 07:37:37;;;;;;;;;;;17.80;99.90;;;;;;5092790;28;20371;-91
2021/07/16 07:40:06;;;;;;;;;;;17.80;99.90;;;;;;5090443;28;19959;-91
2021/07/16 07:42:32;;;;;;;;;;;17.80;99.90;;;;;;5091809;28;19928;-90
2021/07/16 07:44:58;;;;;;;;;;;17.80;99.90;;;;;;5091392;28;19931;-91
2021/07/16 07:47:24;;;;;;;;;;;17.80;99.90;;;;;;5092628;28;19973;-92
2021/07/16 07:49:50;;;;;;;;;;;17.90;99.90;;;;;;5091702;28;20371;-91
2021/07/16 07:52:16;;;;;;;;;;;17.90;99.90;;;;;;5075251;28;19924;-91
2021/07/16 07:54:42;;;;;;;;;;;17.90;99.90;;;;;;5092689;28;19927;-91
2021/07/16 07:57:07;;;;;;;;;;;18.00;99.90;;;;;;5060481;28;20061;-89
2021/07/16 07:59:33;;;;;;;;;;;18.00;99.90;;;;;;5065189;28;19923;-92
2021/07/16 08:01:59;;;;;;;;;;;18.00;99.90;;;;;;5075308;28;19937;-91
2021/07/16 08:04:24;;;;;;;;;;;18.00;99.90;;;;;;5076840;28;20383;-91
2021/07/16 08:06:50;;;;;;;;;;;18.10;99.90;;;;;;5079144;28;20283;-91
2021/07/16 08:09:16;;;;;;;;;;;18.10;99.90;;;;;;5096264;28;19931;-91
2021/07/16 08:11:42;;;;;;;;;;;18.10;99.90;;;;;;5079099;28;19927;-92
2021/07/16 08:14:08;;;;;;;;;;;18.10;99.90;;;;;;5094683;28;20449;-91
2021/07/16 08:16:34;;;;;;;;;;;18.00;99.90;;;;;;5114428;28;19942;-91
2021/07/16 08:19:00;;;;;;;;;;;18.00;99.90;;;;;;5079519;28;20007;-91
2021/07/16 08:21:25;;;;;;;;;;;18.00;99.90;;;;;;5089749;28;20294;-92
2021/07/16 08:23:51;;;;;;;;;;;18.00;99.90;;;;;;5079778;28;19928;-91
2021/07/16 08:26:19;;;;;;;;;;;18.10;99.90;;;;;;5092957;28;20387;-91
2021/07/16 08:28:45;;;;;;;;;;;18.10;99.90;;;;;;5094979;28;19942;-91
2021/07/16 08:31:11;;;;;;;;;;;18.10;99.90;;;;;;5042081;28;20437;-91
2021/07/16 08:33:36;;;;;;;;;;;18.10;99.90;;;;;;5077787;28;20446;-91
2021/07/16 08:36:02;;;;;;;;;;;18.10;99.90;;;;;;5095115;28;19963;-91
2021/07/16 08:38:28;;;;;;;;;;;18.10;99.90;;;;;;5078351;28;20335;-91
2021/07/16 08:40:54;;;;;;;;;;;18.20;99.90;;;;;;5094993;28;19924;-91
2021/07/16 08:43:22;;;;;;;;;;;18.20;99.90;;;;;;5092315;28;19946;-92
2021/07/16 08:45:50;;;;;;;;;;;18.20;99.90;;;;;;5078974;28;19930;-91
2021/07/16 08:48:16;;;;;;;;;;;18.20;99.90;;;;;;5091740;28;20363;-87
2021/07/16 08:50:41;;;;;;;;;;;18.20;99.90;;;;;;5064388;28;19931;-87
2021/07/16 08:53:07;;;;;;;;;;;18.20;99.90;;;;;;5075107;28;20019;-87
2021/07/16 08:55:36;;;;;;;;;;;18.20;99.90;;;;;;5077283;28;20035;-85
2021/07/16 08:58:05;;;;;;;;;;;18.30;99.90;;;;;;5088789;28;19920;-87
2021/07/16 09:00:31;;;;;;;;;;;18.30;99.90;;;;;;5085919;28;19924;-87
2021/07/16 09:02:59;;;;;;;;;;;18.30;99.90;;;;;;5082168;28;20387;-87
2021/07/16 09:05:36;;;;;;;;;;;18.30;99.90;;;;;;5082106;28;19951;-86
2021/07/16 09:08:02;;;;;;;;;;;18.40;99.90;;;;;;5068347;28;19924;-90
2021/07/16 09:10:28;;;;;;;;;;;18.40;99.90;;;;;;5100092;28;19924;-91
2021/07/16 09:12:58;;;;;;;;;;;18.40;99.90;;;;;;5064599;28;19969;-92
2021/07/16 09:15:24;;;;;;;;;;;18.50;99.90;;;;;;5083512;28;20393;-88
2021/07/16 09:18:07;;;;;;;;;;;18.50;99.90;;;;;;5068012;28;19947;-91
2021/07/16 09:20:33;;;;;;;;;;;18.50;99.90;;;;;;5086067;28;19928;-90
2021/07/16 09:23:14;;;;;;;;;;;18.50;99.90;;;;;;5085640;28;19928;-89
2021/07/16 09:25:41;;;;;;;;;;;18.50;99.90;;;;;;5077464;28;19925;-90
2021/07/16 09:28:07;;;;;;;;;;;18.60;99.90;;;;;;5046029;28;19924;-91
2021/07/16 09:30:33;;;;;;;;;;;18.60;99.90;;;;;;5067611;28;20979;-87
2021/07/16 09:33:00;;;;;;;;;;;18.60;99.90;;;;;;5069266;28;20007;-91
2021/07/16 09:35:32;;;;;;;;;;;18.60;99.90;;;;;;5071060;28;19950;-91
2021/07/16 09:38:03;;;;;;;;;;;18.60;99.90;;;;;;5053538;28;20513;-91
2021/07/16 09:40:32;;;;;;;;;;;18.50;99.90;;;;;;5070298;28;19928;-90
2021/07/16 09:43:03;;;;;;;;;;;18.50;99.90;;;;;;5063005;28;19948;-90
2021/07/16 09:45:29;;;;;;;;;;;18.50;99.90;;;;;;5057051;28;20009;-91
2021/07/16 09:47:54;;;;;;;;;;;18.60;99.90;;;;;;5057599;28;19948;-91
2021/07/16 09:50:23;;;;;;;;;;;18.60;99.90;;;;;;5048680;28;19931;-91
2021/07/16 09:53:08;;;;;;;;;;;18.60;99.90;;;;;;5060871;28;19935;-90
2021/07/16 09:55:36;;;;;;;;;;;18.60;99.90;;;;;;5057585;28;19964;-91
2021/07/16 09:58:01;;;;;;;;;;;18.70;99.90;;;;;;5042337;28;19921;-91
2021/07/16 10:00:27;;;;;;;;;;;18.70;99.90;;;;;;5044039;28;19924;-91
2021/07/16 10:02:53;;;;;;;;;;;18.80;99.90;;;;;;5058908;28;20299;-92
2021/07/16 10:05:19;;;;;;;;;;;18.80;99.90;;;;;;5058633;28;19928;-91
2021/07/16 10:07:45;;;;;;;;;;;18.90;99.90;;;;;;5059778;28;19939;-91
2021/07/16 10:10:13;;;;;;;;;;;18.90;99.90;;;;;;5042043;28;19920;-91
2021/07/16 10:12:39;;;;;;;;;;;19.00;99.90;;;;;;5061532;28;20731;-91
2021/07/16 10:15:05;;;;;;;;;;;19.00;99.90;;;;;;5055946;28;19921;-91
2021/07/16 10:17:31;;;;;;;;;;;19.00;99.90;;;;;;5074503;28;20035;-92
2021/07/16 10:19:58;;;;;;;;;;;19.00;99.90;;;;;;5040585;28;19925;-91
2021/07/16 10:22:23;;;;;;;;;;;19.00;99.90;;;;;;5024113;28;19935;-91
2021/07/16 10:24:49;;;;;;;;;;;19.10;99.90;;;;;;5064278;28;19970;-91
2021/07/16 10:27:15;;;;;;;;;;;19.10;99.90;;;;;;5049850;28;19921;-92
2021/07/16 10:29:43;;;;;;;;;;;19.10;99.90;;;;;;5061332;28;19925;-92
2021/07/16 10:32:09;;;;;;;;;;;19.10;99.90;;;;;;5062200;28;19962;-90
2021/07/16 10:34:35;;;;;;;;;;;19.10;99.90;;;;;;5067686;28;19960;-92
2021/07/16 10:37:03;;;;;;;;;;;19.20;99.90;;;;;;5062951;28;20330;-91
2021/07/16 10:39:52;;;;;;;;;;;19.20;99.90;;;;;;5056270;28;20562;-91
2021/07/16 10:42:31;;;;;;;;;;;19.20;99.90;;;;;;5055595;28;20081;-92
2021/07/16 10:45:03;;;;;;;;;;;19.20;99.90;;;;;;5060068;28;19924;-91
2021/07/16 10:47:36;;;;;;;;;;;19.20;99.90;;;;;;5053791;28;19956;-91
2021/07/16 10:50:05;;;;;;;;;;;19.20;99.90;;;;;;5057628;28;19924;-91
2021/07/16 10:52:40;;;;;;;;;;;19.30;99.90;;;;;;5063883;28;19928;-91
2021/07/16 10:55:06;;;;;;;;;;;19.20;99.90;;;;;;5056849;28;19925;-91
2021/07/16 10:57:39;;;;;;;;;;;19.30;99.90;;;;;;5047829;28;20022;-92
2021/07/16 11:00:05;;;;;;;;;;;19.30;99.90;;;;;;5043661;28;20459;-91
2021/07/16 11:02:47;;;;;;;;;;;19.20;99.90;;;;;;5056596;28;19928;-91
2021/07/16 11:05:31;;;;;;;;;;;19.20;99.90;;;;;;5051185;28;19925;-91
2021/07/16 11:07:57;;;;;;;;;;;19.30;99.90;;;;;;5082497;28;19924;-91
2021/07/16 11:10:41;;;;;;;;;;;19.30;99.90;;;;;;5062988;28;19947;-90
2021/07/16 11:13:25;;;;;;;;;;;19.30;99.90;;;;;;5082914;28;19920;-91
2021/07/16 11:15:53;;;;;;;;;;;19.30;99.90;;;;;;5062724;28;22642;-92
2021/07/16 11:18:26;;;;;;;;;;;19.30;99.90;;;;;;5056597;28;19921;-92
2021/07/16 11:20:53;;;;;;;;;;;19.30;99.90;;;;;;5065219;28;19928;-91
2021/07/16 11:23:20;;;;;;;;;;;19.30;99.90;;;;;;5075558;28;19924;-91
2021/07/16 11:25:45;;;;;;;;;;;19.30;99.90;;;;;;5069858;28;19921;-91
2021/07/16 11:28:11;;;;;;;;;;;19.40;99.90;;;;;;5095530;28;20010;-91
2021/07/16 11:30:37;;;;;;;;;;;19.40;99.90;;;;;;5088048;28;19924;-90
2021/07/16 11:33:03;;;;;;;;;;;19.40;99.90;;;;;;5099712;28;19928;-91
2021/07/16 11:35:30;;;;;;;;;;;19.40;99.90;;;;;;5087982;28;20288;-91
2021/07/16 11:37:55;;;;;;;;;;;19.40;99.90;;;;;;5065567;28;19928;-91
2021/07/16 11:40:23;;;;;;;;;;;19.40;99.90;;;;;;5090254;28;20282;-91
2021/07/16 11:42:52;;;;;;;;;;;19.40;99.90;;;;;;5094692;28;19947;-91
2021/07/16 11:45:20;;;;;;;;;;;19.50;99.90;;;;;;5075183;28;19931;-86
2021/07/16 11:47:45;;;;;;;;;;;19.50;99.90;;;;;;5084336;28;20310;-89
2021/07/16 11:50:12;;;;;;;;;;;19.60;99.90;;;;;;5082485;28;20034;-92
2021/07/16 11:52:40;;;;;;;;;;;19.60;99.90;;;;;;5083072;28;19923;-94
2021/07/16 11:55:06;;;;;;;;;;;19.60;99.90;;;;;;5088940;28;20012;-93
2021/07/16 11:57:32;;;;;;;;;;;19.60;99.90;;;;;;5105034;28;19963;-92
2021/07/16 11:59:58;;;;;;;;;;;19.60;99.90;;;;;;5085171;28;20022;-95
2021/07/16 12:02:24;;;;;;;;;;;19.70;99.90;;;;;;5068498;28;19953;-92
2021/07/16 12:04:51;;;;;;;;;;;19.70;99.90;;;;;;5071651;28;19919;-91
2021/07/16 12:07:17;;;;;;;;;;;19.70;99.90;;;;;;5077678;28;19930;-91
2021/07/16 12:09:44;;;;;;;;;;;19.70;99.90;;;;;;5069269;28;20391;-93
2021/07/16 12:12:15;;;;;;;;;;;19.70;99.90;;;;;;5081984;28;19935;-91
2021/07/16 12:14:47;;;;;;;;;;;19.70;99.90;;;;;;5102826;28;19920;-92
2021/07/16 12:17:13;;;;;;;;;;;19.70;99.90;;;;;;5091746;28;19924;-91
2021/07/16 12:19:39;;;;;;;;;;;19.70;99.90;;;;;;5074188;28;20032;-92
2021/07/16 12:22:05;;;;;;;;;;;19.70;99.90;;;;;;5068874;28;19932;-91
2021/07/16 12:24:32;;;;;;;;;;;19.70;99.90;;;;;;5073873;28;19930;-92
2021/07/16 12:27:05;;;;;;;;;;;19.70;99.90;;;;;;5092987;28;19923;-91
2021/07/16 12:29:34;;;;;;;;;;;19.70;99.90;;;;;;5086388;28;19908;-92
2021/07/16 12:31:59;;;;;;;;;;;19.70;99.90;;;;;;5094714;28;19954;-91
2021/07/16 12:34:26;;;;;;;;;;;19.70;99.90;;;;;;5086460;28;20412;-91
2021/07/16 12:37:07;;;;;;;;;;;19.80;99.90;;;;;;5101654;28;19920;-91
2021/07/16 12:39:33;;;;;;;;;;;19.80;99.90;;;;;;5077081;28;19923;-91
2021/07/16 12:42:08;;;;;;;;;;;19.90;99.90;;;;;;5077033;28;19934;-93
2021/07/16 12:44:34;;;;;;;;;;;19.90;99.90;;;;;;5075221;28;20017;-90
2021/07/16 12:47:00;;;;;;;;;;;19.90;99.90;;;;;;5076345;28;20450;-91
2021/07/16 12:49:25;;;;;;;;;;;20.00;99.90;;;;;;5102677;28;20010;-91
2021/07/16 12:51:51;;;;;;;;;;;20.00;99.90;;;;;;5082007;28;19923;-92
2021/07/16 12:54:18;;;;;;;;;;;20.00;99.90;;;;;;5093070;28;19923;-90
2021/07/16 12:56:44;;;;;;;;;;;20.00;99.90;;;;;;5077397;28;19924;-90
2021/07/16 12:59:39;;;;;;;;;;;20.00;99.90;;;;;;5078673;28;19923;-92
2021/07/16 13:02:05;;;;;;;;;;;20.00;99.90;;;;;;5091082;28;19970;-91
2021/07/16 13:04:34;;;;;;;;;;;20.00;99.90;;;;;;5086483;28;19966;-91
2021/07/16 13:07:00;;;;;;;;;;;20.00;99.90;;;;;;5058439;28;19920;-92
2021/07/16 13:09:30;;;;;;;;;;;20.00;99.90;;;;;;5105646;28;20420;-91
2021/07/16 13:11:57;;;;;;;;;;;20.00;99.90;;;;;;5080510;28;19923;-89
2021/07/16 13:14:24;;;;;;;;;;;20.00;99.90;;;;;;5075090;28;19928;-89
2021/07/16 13:16:50;;;;;;;;;;;20.00;99.90;;;;;;5104399;28;20421;-87
2021/07/16 13:19:16;;;;;;;;;;;20.00;99.90;;;;;;5080003;28;20367;-90
2021/07/16 13:21:41;;;;;;;;;;;19.90;99.90;;;;;;5077430;28;19931;-90
2021/07/16 13:24:07;;;;;;;;;;;19.90;99.90;;;;;;5044139;28;20309;-90
2021/07/16 13:26:34;;;;;;;;;;;19.90;99.90;;;;;;5073846;28;19924;-89
2021/07/16 13:29:03;;;;;;;;;;;19.90;99.90;;;;;;5067778;28;20387;-90
2021/07/16 13:31:29;;;;;;;;;;;19.90;99.90;;;;;;5090257;28;20454;-91
2021/07/16 13:33:55;;;;;;;;;;;20.00;99.90;;;;;;5102232;28;20329;-92
2021/07/16 13:36:20;;;;;;;;;;;20.00;99.90;;;;;;5084903;28;19927;-92
2021/07/16 13:38:46;;;;;;;;;;;20.00;99.90;;;;;;5100178;28;20378;-93
2021/07/16 13:41:13;;;;;;;;;;;20.00;99.90;;;;;;5077242;28;20398;-91
2021/07/16 13:43:40;;;;;;;;;;;20.00;99.90;;;;;;5060108;28;19988;-93
2021/07/16 13:46:06;;;;;;;;;;;20.00;99.90;;;;;;5082452;28;19930;-94
2021/07/16 13:48:32;;;;;;;;;;;20.10;99.90;;;;;;5073602;28;20039;-93
2021/07/16 13:50:58;;;;;;;;;;;20.10;99.90;;;;;;5096632;28;19926;-92
2021/07/16 13:53:23;;;;;;;;;;;20.20;99.90;;;;;;5081263;28;19969;-93
2021/07/16 13:55:49;;;;;;;;;;;20.20;99.90;;;;;;5074254;28;20365;-92
2021/07/16 13:58:15;;;;;;;;;;;20.20;99.90;;;;;;5073660;28;20295;-93
2021/07/16 14:00:41;;;;;;;;;;;20.30;99.90;;;;;;5089252;28;20371;-91
2021/07/16 14:03:06;;;;;;;;;;;20.30;99.90;;;;;;5057594;28;20320;-92
2021/07/16 14:05:32;;;;;;;;;;;20.30;99.90;;;;;;5083365;28;19970;-92
2021/07/16 14:07:58;;;;;;;;;;;20.30;99.90;;;;;;5078677;28;20488;-92
2021/07/16 14:10:24;;;;;;;;;;;20.30;99.90;;;;;;5077413;28;19924;-92
2021/07/16 14:12:49;;;;;;;;;;;20.30;99.90;;;;;;5054867;28;20772;-92
2021/07/16 14:15:16;;;;;;;;;;;20.30;99.90;;;;;;5074931;28;20394;-92